Time;durP1;ratioP1;P1;durP2;ratioP2;P2;SDS_P1;SDS_P2;PMS_P1;PMS_P2;Temp;Humidity;BMP_temperature;BMP_pressure;BME280_temperature;BME280_humidity;BME280_pressure;Samples;Min_cycle;Max_cycle;Signal;HPM_P1;HPM_P2
2023/09/10 00:01:46;;;;;;;9.05;5.18;;;;;;;-142.57;61.59;115900.28;5055829;28;20017;-80
2023/09/10 00:04:12;;;;;;;12.40;5.65;;;;;;;-142.57;61.28;115900.28;5056438;28;20037;-80
2023/09/10 00:06:37;;;;;;;11.63;5.75;;;;;;;-142.57;62.40;115900.28;5056219;28;20383;-81
2023/09/10 00:09:03;;;;;;;9.27;5.78;;;;;;;-142.57;62.45;115900.28;5055149;28;20064;-80
2023/09/10 00:11:29;;;;;;;11.15;5.72;;;;;;;-142.57;62.18;115900.28;5057323;28;20086;-79
2023/09/10 00:13:54;;;;;;;10.68;5.95;;;;;;;-142.57;62.51;115900.28;5055643;28;20033;-80
2023/09/10 00:16:20;;;;;;;9.52;5.72;;;;;;;-142.57;62.57;115900.28;5060029;28;20044;-80
2023/09/10 00:18:46;;;;;;;7.68;5.88;;;;;;;-142.57;62.54;115900.28;5066857;28;20040;-80
2023/09/10 00:21:11;;;;;;;12.35;5.75;;;;;;;-142.57;62.24;115900.28;5076175;28;20037;-79
2023/09/10 00:23:37;;;;;;;6.90;5.20;;;;;;;-142.57;61.73;115900.28;5073767;28;20120;-82
2023/09/10 00:26:02;;;;;;;9.98;5.82;;;;;;;-142.57;60.35;115900.28;5060896;28;20017;-78
2023/09/10 00:28:28;;;;;;;8.63;5.53;;;;;;;-142.57;59.29;115900.28;5063817;28;20058;-81
2023/09/10 00:30:54;;;;;;;16.85;5.45;;;;;;;-142.57;59.04;115900.28;5060119;28;20037;-81
2023/09/10 00:33:20;;;;;;;8.80;5.13;;;;;;;-142.57;58.87;115900.28;5059441;28;20472;-83
2023/09/10 00:35:46;;;;;;;7.55;5.00;;;;;;;-142.57;58.69;115900.28;5060281;28;20025;-82
2023/09/10 00:38:13;;;;;;;9.82;5.68;;;;;;;-142.57;58.68;115900.28;5059369;28;20090;-81
2023/09/10 00:40:38;;;;;;;7.20;5.15;;;;;;;-142.57;58.54;115900.28;5061893;28;20037;-85
2023/09/10 00:43:04;;;;;;;13.20;5.05;;;;;;;-142.57;58.21;115900.28;5097667;28;20044;-82
2023/09/10 00:45:30;;;;;;;8.90;5.60;;;;;;;-142.57;59.86;115900.28;5086030;28;20040;-83
2023/09/10 00:47:57;;;;;;;11.88;5.32;;;;;;;-142.57;60.80;115900.28;5076503;28;20471;-79
2023/09/10 00:50:23;;;;;;;19.42;6.22;;;;;;;-142.57;61.11;115900.28;5071911;28;20119;-79
2023/09/10 00:52:53;;;;;;;8.43;5.50;;;;;;;-142.57;61.88;115900.28;5070413;28;20518;-79
2023/09/10 00:55:21;;;;;;;7.82;5.20;;;;;;;-142.57;62.14;115900.28;5053405;28;20041;-81
2023/09/10 00:57:48;;;;;;;12.15;5.43;;;;;;;-142.57;62.18;115900.28;5053340;28;20029;-80
2023/09/10 01:00:14;;;;;;;12.98;5.75;;;;;;;-142.57;62.35;115900.28;5055139;28;20492;-79
2023/09/10 01:02:43;;;;;;;9.38;4.93;;;;;;;-142.57;62.70;115900.28;5053451;28;20132;-79
2023/09/10 01:05:11;;;;;;;15.05;5.10;;;;;;;-142.57;62.69;115900.28;5052901;28;20032;-80
2023/09/10 01:07:40;;;;;;;7.82;5.07;;;;;;;-142.57;61.66;115900.28;5056915;28;20029;-79
2023/09/10 01:10:07;;;;;;;10.63;5.50;;;;;;;-142.57;62.33;115900.28;5065536;28;20032;-80
2023/09/10 01:13:04;;;;;;;13.35;5.63;;;;;;;-142.57;62.70;115900.28;5061705;28;20484;-79
2023/09/10 01:15:38;;;;;;;6.88;5.38;;;;;;;-142.57;63.39;115900.28;5061984;28;20055;-79
2023/09/10 01:18:33;;;;;;;10.50;5.85;;;;;;;-142.57;63.04;115900.28;5082669;28;20057;-80
2023/09/10 01:21:17;;;;;;;10.93;5.97;;;;;;;-142.57;63.33;115900.28;5064521;28;20040;-80
2023/09/10 01:24:07;;;;;;;15.55;6.13;;;;;;;-142.57;63.87;115900.28;5063251;28;20071;-78
2023/09/10 01:26:36;;;;;;;12.77;5.45;;;;;;;-142.57;63.99;115900.28;5063479;28;20033;-78
2023/09/10 01:29:04;;;;;;;9.98;5.45;;;;;;;-142.57;63.09;115900.28;5061180;28;20035;-78
2023/09/10 01:31:34;;;;;;;8.20;5.40;;;;;;;-142.57;62.89;115900.28;5064098;28;20029;-82
2023/09/10 01:34:03;;;;;;;10.68;5.57;;;;;;;-142.57;63.88;115900.28;5061589;28;20094;-77
2023/09/10 01:36:38;;;;;;;11.88;5.60;;;;;;;-142.57;64.06;115900.28;5062948;28;20056;-80
2023/09/10 01:39:19;;;;;;;8.23;5.65;;;;;;;-142.57;64.06;115900.28;5053771;28;20045;-78
2023/09/10 01:41:49;;;;;;;9.73;5.85;;;;;;;-142.57;64.46;115900.28;5054344;28;20067;-79
2023/09/10 01:44:16;;;;;;;9.77;5.47;;;;;;;-142.57;64.56;115900.28;5059457;28;20051;-79
2023/09/10 01:46:43;;;;;;;11.50;5.53;;;;;;;-142.57;65.10;115900.28;5067311;28;20036;-82
2023/09/10 01:49:08;;;;;;;8.93;5.25;;;;;;;-142.57;65.34;115900.28;5072754;28;20470;-78
2023/09/10 01:51:34;;;;;;;6.85;5.47;;;;;;;-142.57;65.29;115900.28;5076694;28;20033;-79
2023/09/10 01:54:00;;;;;;;14.10;5.70;;;;;;;-142.57;65.50;115900.28;5038562;28;20040;-80
2023/09/10 01:56:26;;;;;;;9.80;6.20;;;;;;;-142.57;66.09;115900.28;5053588;28;20037;-80
2023/09/10 01:58:51;;;;;;;10.30;5.97;;;;;;;-142.57;65.71;115900.28;5062716;28;20020;-78
2023/09/10 02:01:17;;;;;;;6.35;5.15;;;;;;;-142.57;65.91;115900.28;5062566;28;20044;-81
2023/09/10 02:03:42;;;;;;;10.90;5.40;;;;;;;-142.57;65.64;115900.28;5073383;28;20024;-80
2023/09/10 02:06:08;;;;;;;10.50;5.93;;;;;;;-142.57;65.86;115900.28;5064786;28;20017;-81
2023/09/10 02:08:34;;;;;;;18.45;5.63;;;;;;;-142.57;65.83;115900.28;5053266;28;20557;-80
2023/09/10 02:11:04;;;;;;;14.48;6.05;;;;;;;-142.57;66.21;115900.28;5053488;28;20120;-79
2023/09/10 02:13:30;;;;;;;14.23;5.82;;;;;;;-142.57;66.02;115900.28;5053744;28;20064;-81
2023/09/10 02:15:55;;;;;;;9.95;5.30;;;;;;;-142.57;66.73;115900.28;5062122;28;20074;-81
2023/09/10 02:18:22;;;;;;;8.75;5.90;;;;;;;-142.57;66.61;115900.28;5053337;28;20476;-81
2023/09/10 02:20:48;;;;;;;15.68;5.60;;;;;;;-142.57;65.87;115900.28;5069923;28;20036;-80
2023/09/10 02:23:14;;;;;;;10.45;5.97;;;;;;;-142.57;65.60;115900.28;5073745;28;20032;-81
2023/09/10 02:25:40;;;;;;;8.18;5.60;;;;;;;-142.57;65.77;115900.28;5073304;28;20055;-81
2023/09/10 02:28:06;;;;;;;10.27;5.90;;;;;;;-142.57;66.06;115900.28;5071548;28;20074;-81
2023/09/10 02:30:31;;;;;;;10.38;5.55;;;;;;;-142.57;66.60;115900.28;5054459;28;20057;-80
2023/09/10 02:32:57;;;;;;;12.00;6.18;;;;;;;-142.57;66.72;115900.28;5058102;28;20065;-82
2023/09/10 02:35:23;;;;;;;10.98;5.00;;;;;;;-142.57;66.71;115900.28;5065180;28;20032;-80
2023/09/10 02:37:48;;;;;;;11.48;5.55;;;;;;;-142.57;66.83;115900.28;5073660;28;20116;-81
2023/09/10 02:40:14;;;;;;;8.00;5.22;;;;;;;-142.57;66.81;115900.28;5054229;28;20516;-80
2023/09/10 02:42:40;;;;;;;12.57;5.63;;;;;;;-142.57;68.20;115900.28;5051777;28;20045;-79
2023/09/10 02:45:06;;;;;;;8.93;5.72;;;;;;;-142.57;68.81;115900.28;5051970;28;20043;-80
2023/09/10 02:47:32;;;;;;;11.32;5.78;;;;;;;-142.57;67.87;115900.28;5053296;28;20119;-81
2023/09/10 02:49:58;;;;;;;12.85;5.80;;;;;;;-142.57;67.29;115900.28;5053127;28;20484;-80
2023/09/10 02:52:24;;;;;;;10.60;5.18;;;;;;;-142.57;67.89;115900.28;5053065;28;20071;-82
2023/09/10 02:54:53;;;;;;;6.65;5.30;;;;;;;-142.57;68.03;115900.28;5052445;28;20468;-79
2023/09/10 02:57:19;;;;;;;8.30;5.43;;;;;;;-142.57;67.93;115900.28;5053025;28;20479;-80
2023/09/10 02:59:44;;;;;;;15.10;5.88;;;;;;;-142.57;67.78;115900.28;5052768;28;20044;-79
2023/09/10 03:02:10;;;;;;;10.38;5.80;;;;;;;-142.57;67.37;115900.28;5053722;28;20076;-79
2023/09/10 03:04:35;;;;;;;11.38;5.82;;;;;;;-142.57;67.64;115900.28;5052729;28;20095;-82
2023/09/10 03:07:01;;;;;;;10.63;5.47;;;;;;;-142.57;66.36;115900.28;5057648;28;20071;-78
2023/09/10 03:09:27;;;;;;;8.80;5.60;;;;;;;-142.57;66.99;115900.28;5072280;28;20051;-81
2023/09/10 03:11:57;;;;;;;15.75;5.60;;;;;;;-142.57;66.70;115900.28;5072164;28;20100;-79
2023/09/10 03:14:23;;;;;;;10.23;5.10;;;;;;;-142.57;67.25;115900.28;5067968;28;20106;-79
2023/09/10 03:16:48;;;;;;;10.95;5.63;;;;;;;-142.57;68.73;115900.28;5068625;28;20372;-80
2023/09/10 03:19:14;;;;;;;7.25;5.32;;;;;;;-142.57;69.36;115900.28;5057400;28;20029;-81
2023/09/10 03:21:39;;;;;;;9.63;5.35;;;;;;;-142.57;69.29;115900.28;5052890;28;20037;-79
2023/09/10 03:24:06;;;;;;;10.63;5.13;;;;;;;-142.57;70.24;115900.28;5068687;28;20440;-81
2023/09/10 03:26:32;;;;;;;24.15;6.32;;;;;;;-142.57;69.74;115900.28;5056014;28;20041;-80
2023/09/10 03:28:57;;;;;;;13.18;6.07;;;;;;;-142.57;70.50;115900.28;5076137;28;20054;-82
2023/09/10 03:31:23;;;;;;;9.35;5.72;;;;;;;-142.57;70.77;115900.28;5073512;28;20028;-80
2023/09/10 03:33:49;;;;;;;9.00;5.80;;;;;;;-142.57;71.91;115900.28;5091955;28;20124;-81
2023/09/10 03:36:14;;;;;;;8.68;6.40;;;;;;;-142.57;74.15;115900.28;5074949;28;20037;-79
2023/09/10 03:38:40;;;;;;;9.85;6.53;;;;;;;-142.57;74.21;115900.28;5077010;28;20037;-80
2023/09/10 03:41:06;;;;;;;11.98;6.78;;;;;;;-142.57;73.69;115900.28;5058159;28;20033;-79
2023/09/10 03:43:32;;;;;;;8.82;6.00;;;;;;;-142.57;73.00;115900.28;5055499;28;20044;-80
2023/09/10 03:45:58;;;;;;;8.18;5.57;;;;;;;-142.57;73.62;115900.28;5069158;28;20025;-79
2023/09/10 03:48:23;;;;;;;8.73;5.90;;;;;;;-142.57;73.72;115900.28;5073429;28;20124;-80
2023/09/10 03:50:49;;;;;;;8.68;6.00;;;;;;;-142.57;74.08;115900.28;5072868;28;20448;-80
2023/09/10 03:53:14;;;;;;;9.23;5.90;;;;;;;-142.57;73.49;115900.28;5073658;28;20040;-79
2023/09/10 03:55:41;;;;;;;9.82;6.20;;;;;;;-142.57;73.11;115900.28;5090785;28;20043;-79
2023/09/10 03:58:07;;;;;;;7.03;5.40;;;;;;;-142.57;72.49;115900.28;5067141;28;20112;-81
2023/09/10 04:00:33;;;;;;;11.70;5.63;;;;;;;-142.57;72.60;115900.28;5056249;28;20032;-80
2023/09/10 04:03:00;;;;;;;9.02;5.65;;;;;;;-142.57;72.48;115900.28;5072048;28;20044;-79
2023/09/10 04:05:26;;;;;;;11.30;5.50;;;;;;;-142.57;72.02;115900.28;5075409;28;20033;-79
2023/09/10 04:07:51;;;;;;;9.07;5.15;;;;;;;-142.57;71.54;115900.28;5075872;28;20043;-79
2023/09/10 04:10:17;;;;;;;12.48;5.63;;;;;;;-142.57;72.26;115900.28;5064333;28;20391;-80
2023/09/10 04:12:43;;;;;;;10.00;5.25;;;;;;;-142.57;73.70;115900.28;5055193;28;20120;-79
2023/09/10 04:15:09;;;;;;;12.35;5.65;;;;;;;-142.57;73.30;115900.28;5055686;28;20032;-79
2023/09/10 04:17:34;;;;;;;14.52;5.93;;;;;;;-142.57;73.88;115900.28;5070696;28;20024;-79
2023/09/10 04:20:00;;;;;;;12.45;6.28;;;;;;;-142.57;73.08;115900.28;5062696;28;20382;-79
2023/09/10 04:22:26;;;;;;;12.73;5.18;;;;;;;-142.57;72.31;115900.28;5073638;28;20040;-77
2023/09/10 04:24:52;;;;;;;10.65;6.00;;;;;;;-142.57;71.22;115900.28;5055901;28;20039;-78
2023/09/10 04:27:18;;;;;;;12.55;5.57;;;;;;;-142.57;71.60;115900.28;5047983;28;20120;-78
2023/09/10 04:29:44;;;;;;;9.38;5.72;;;;;;;-142.57;72.06;115900.28;5056538;28;20543;-79
2023/09/10 04:32:09;;;;;;;7.72;5.72;;;;;;;-142.57;72.65;115900.28;5064959;28;20033;-79
2023/09/10 04:34:35;;;;;;;10.30;5.72;;;;;;;-142.57;72.59;115900.28;5086496;28;20039;-79
2023/09/10 04:37:04;;;;;;;8.65;5.15;;;;;;;-142.57;71.66;115900.28;5084815;28;20062;-80
2023/09/10 04:39:30;;;;;;;8.02;5.53;;;;;;;-142.57;71.33;115900.28;5082851;28;20048;-79
2023/09/10 04:41:56;;;;;;;12.77;5.75;;;;;;;-142.57;70.97;115900.28;5081227;28;20042;-81
2023/09/10 04:44:22;;;;;;;8.23;5.57;;;;;;;-142.57;70.80;115900.28;5075497;28;20475;-79
2023/09/10 04:46:48;;;;;;;16.48;5.78;;;;;;;-142.57;71.30;115900.28;5074798;28;20126;-78
2023/09/10 04:49:13;;;;;;;13.02;6.35;;;;;;;-142.57;71.53;115900.28;5074654;28;20029;-78
2023/09/10 04:51:39;;;;;;;14.90;5.93;;;;;;;-142.57;71.75;115900.28;5074600;28;20028;-79
2023/09/10 04:54:05;;;;;;;11.07;5.50;;;;;;;-142.57;72.31;115900.28;5073180;28;20087;-79
2023/09/10 04:56:30;;;;;;;12.82;5.90;;;;;;;-142.57;70.73;115900.28;5072972;28;20059;-80
2023/09/10 04:58:56;;;;;;;18.23;6.38;;;;;;;-142.57;71.28;115900.28;5073051;28;20499;-79
2023/09/10 05:01:22;;;;;;;13.40;5.88;;;;;;;-142.57;71.40;115900.28;5072664;28;20037;-78
2023/09/10 05:03:47;;;;;;;10.73;5.68;;;;;;;-142.57;70.24;115900.28;5066571;28;20032;-78
2023/09/10 05:06:13;;;;;;;12.35;5.45;;;;;;;-142.57;69.84;115900.28;5051914;28;20076;-80
2023/09/10 05:08:39;;;;;;;18.00;6.05;;;;;;;-142.57;69.62;115900.28;5053155;28;20074;-81
2023/09/10 05:11:05;;;;;;;11.18;5.80;;;;;;;-142.57;70.23;115900.28;5068956;28;20476;-80
2023/09/10 05:13:31;;;;;;;16.20;5.65;;;;;;;-142.57;69.76;115900.28;5072408;28;20053;-81
2023/09/10 05:15:57;;;;;;;17.77;5.57;;;;;;;-142.57;69.14;115900.28;5072173;28;20111;-78
2023/09/10 05:18:27;;;;;;;13.23;5.80;;;;;;;-142.57;67.77;115900.28;5056141;28;20094;-80
2023/09/10 05:20:54;;;;;;;22.50;6.13;;;;;;;-142.57;67.25;115900.28;5072591;28;20191;-80
2023/09/10 05:23:22;;;;;;;17.70;6.05;;;;;;;-142.57;63.87;115900.28;5069247;28;20150;-79
2023/09/10 05:25:47;;;;;;;17.02;6.20;;;;;;;-142.57;61.36;115900.28;5053341;28;20037;-80
2023/09/10 05:28:13;;;;;;;16.05;5.47;;;;;;;-142.57;61.76;115900.28;5065634;28;20067;-83
2023/09/10 05:30:39;;;;;;;10.55;5.18;;;;;;;-142.57;58.08;115900.28;5079493;28;20033;-82
2023/09/10 05:33:04;;;;;;;8.90;5.15;;;;;;;-142.57;55.20;115900.28;5068312;28;20475;-84
2023/09/10 05:35:30;;;;;;;10.38;5.22;;;;;;;-142.57;52.01;115900.28;5062939;28;20052;-85
2023/09/10 05:37:56;;;;;;;14.80;4.80;;;;;;;-142.57;51.63;115900.28;5068372;28;20032;-85
2023/09/10 05:40:22;;;;;;;8.32;4.60;;;;;;;-142.57;52.65;115900.28;5082046;28;20025;-83
2023/09/10 05:42:47;;;;;;;11.98;5.07;;;;;;;-142.57;50.83;115900.28;5055392;28;20041;-87
2023/09/10 05:45:13;;;;;;;8.02;4.53;;;;;;;-142.57;49.21;115900.28;5054872;28;20029;-83
2023/09/10 05:47:39;;;;;;;12.55;4.80;;;;;;;-142.57;46.50;115900.28;5058751;28;20032;-85
2023/09/10 05:50:05;;;;;;;9.07;4.40;;;;;;;-142.57;44.72;115900.28;5074034;28;20032;-85
2023/09/10 05:52:31;;;;;;;11.13;4.35;;;;;;;-142.57;44.14;115900.28;5070982;28;20131;-85
2023/09/10 05:54:57;;;;;;;6.93;4.50;;;;;;;-142.57;44.95;115900.28;5053446;28;20120;-82
2023/09/10 05:57:22;;;;;;;9.90;4.00;;;;;;;-142.57;45.56;115900.28;5053796;28;20041;-82
2023/09/10 05:59:49;;;;;;;9.77;4.20;;;;;;;-142.57;46.56;115900.28;5053148;28;20037;-85
2023/09/10 06:02:15;;;;;;;7.63;4.30;;;;;;;-142.57;45.31;115900.28;5056202;28;20041;-81
2023/09/10 06:04:40;;;;;;;7.47;4.38;;;;;;;-142.57;45.79;115900.28;5061992;28;20381;-84
2023/09/10 06:07:06;;;;;;;9.82;4.53;;;;;;;-142.57;45.50;115900.28;5062342;28;20033;-82
2023/09/10 06:09:32;;;;;;;13.57;4.55;;;;;;;-142.57;40.71;115900.28;5055905;28;20025;-85
2023/09/10 06:12:00;;;;;;;7.32;3.97;;;;;;;-142.57;39.43;115900.28;5063544;28;20071;-83
2023/09/10 06:14:26;;;;;;;9.80;4.05;;;;;;;-142.57;37.49;115900.28;5057137;28;20037;-83
2023/09/10 06:16:51;;;;;;;5.45;3.53;;;;;;;-142.57;38.11;115900.28;5068281;28;20402;-84
2023/09/10 06:19:17;;;;;;;10.35;3.80;;;;;;;-142.57;36.86;115900.28;5087439;28;20033;-85
2023/09/10 06:21:42;;;;;;;12.00;4.10;;;;;;;-142.57;35.43;115900.28;5068762;28;20029;-84
2023/09/10 06:24:08;;;;;;;9.65;4.53;;;;;;;-142.57;34.65;115900.28;5070409;28;20032;-83
2023/09/10 06:26:34;;;;;;;9.10;4.38;;;;;;;-142.57;38.19;115900.28;5056239;28;20036;-83
2023/09/10 06:29:00;;;;;;;6.68;3.35;;;;;;;-142.57;39.88;115900.28;5072066;28;20036;-81
2023/09/10 06:31:26;;;;;;;9.77;4.50;;;;;;;-142.57;41.07;115900.28;5074689;28;20037;-86
2023/09/10 06:33:55;;;;;;;11.20;4.25;;;;;;;-142.57;39.46;115900.28;5059525;28;20097;-84
2023/09/10 06:36:21;;;;;;;9.60;4.45;;;;;;;-142.57;38.77;115900.28;5063088;28;20068;-83
2023/09/10 06:38:47;;;;;;;9.50;4.25;;;;;;;-142.57;36.69;115900.28;5064232;28;20079;-84
2023/09/10 06:41:17;;;;;;;8.75;4.22;;;;;;;-142.57;36.42;115900.28;5064007;28;20029;-84
2023/09/10 06:43:43;;;;;;;10.07;4.25;;;;;;;-142.57;35.42;115900.28;5072889;28;20042;-87
2023/09/10 06:46:14;;;;;;;10.15;3.90;;;;;;;-142.57;34.96;115900.28;5070386;28;20032;-86
2023/09/10 06:48:39;;;;;;;9.80;4.00;;;;;;;-142.57;34.05;115900.28;5068616;28;20098;-86
2023/09/10 06:51:05;;;;;;;8.95;4.15;;;;;;;-142.57;34.26;115900.28;5063671;28;20056;-86
2023/09/10 06:53:31;;;;;;;10.93;3.50;;;;;;;-142.57;35.07;115900.28;5065850;28;20051;-85
2023/09/10 06:55:57;;;;;;;20.83;3.83;;;;;;;-142.57;33.40;115900.28;5062186;28;20112;-85
2023/09/10 06:58:25;;;;;;;11.65;4.32;;;;;;;-142.57;35.08;115900.28;5062693;28;20051;-85
2023/09/10 07:00:51;;;;;;;9.00;3.72;;;;;;;-142.57;34.51;115900.28;5063565;28;20041;-86
2023/09/10 07:03:16;;;;;;;7.63;3.58;;;;;;;-142.57;35.17;115900.28;5075036;28;20040;-84
2023/09/10 07:05:43;;;;;;;10.70;4.30;;;;;;;-142.57;35.80;115900.28;5068497;28;20029;-83
2023/09/10 07:08:13;;;;;;;6.80;3.53;;;;;;;-142.57;34.06;115900.28;5066952;28;20388;-80
2023/09/10 07:10:39;;;;;;;7.10;3.85;;;;;;;-142.57;33.20;115900.28;5065642;28;20036;-80
2023/09/10 07:13:06;;;;;;;19.27;4.57;;;;;;;-142.57;33.04;115900.28;5067087;28;20025;-81
2023/09/10 07:15:35;;;;;;;6.55;3.58;;;;;;;-142.57;32.55;115900.28;5062881;28;20117;-82
2023/09/10 07:18:01;;;;;;;10.52;3.40;;;;;;;-142.57;33.65;115900.28;5064450;28;20071;-80
2023/09/10 07:20:27;;;;;;;7.80;3.70;;;;;;;-142.57;34.54;115900.28;5065108;28;20056;-81
2023/09/10 07:22:53;;;;;;;9.13;3.70;;;;;;;-142.57;33.40;115900.28;5066491;28;20024;-80
2023/09/10 07:25:19;;;;;;;6.20;4.20;;;;;;;-142.57;32.39;115900.28;5066750;28;20033;-79
2023/09/10 07:27:44;;;;;;;9.07;4.00;;;;;;;-142.57;33.75;115900.28;5065170;28;20083;-80
2023/09/10 07:30:11;;;;;;;12.25;3.58;;;;;;;-142.57;32.72;115900.28;5066010;28;20538;-81
2023/09/10 07:32:36;;;;;;;20.75;4.50;;;;;;;-142.57;33.32;115900.28;5064710;28;20024;-80
2023/09/10 07:35:02;;;;;;;7.32;4.57;;;;;;;-142.57;33.31;115900.28;5066358;28;20036;-80
2023/09/10 07:37:28;;;;;;;11.88;4.30;;;;;;;-142.57;34.21;115900.28;5067635;28;20120;-80
2023/09/10 07:39:53;;;;;;;8.05;4.25;;;;;;;-142.57;33.70;115900.28;5058284;28;20025;-80
2023/09/10 07:42:19;;;;;;;8.52;4.57;;;;;;;-142.57;34.20;115900.28;5065752;28;20033;-81
2023/09/10 07:44:44;;;;;;;8.13;4.63;;;;;;;-142.57;33.33;115900.28;5063820;28;20075;-80
2023/09/10 07:47:10;;;;;;;12.43;4.80;;;;;;;-142.57;32.45;115900.28;5075537;28;20037;-81
2023/09/10 07:49:35;;;;;;;14.15;4.05;;;;;;;-142.57;32.34;115900.28;5060502;28;20125;-80
2023/09/10 07:52:04;;;;;;;7.22;3.97;;;;;;;-142.57;33.35;115900.28;5054651;28;20029;-81
2023/09/10 07:54:31;;;;;;;10.90;4.13;;;;;;;-142.57;32.58;115900.28;5056557;28;20110;-79
2023/09/10 07:56:56;;;;;;;8.93;4.43;;;;;;;-142.57;32.29;115900.28;5057669;28;20123;-81
2023/09/10 07:59:22;;;;;;;11.18;4.80;;;;;;;-142.57;32.51;115900.28;5064373;28;20475;-78
2023/09/10 08:01:47;;;;;;;11.07;4.63;;;;;;;-142.57;32.54;115900.28;5067524;28;20033;-77
2023/09/10 08:04:13;;;;;;;9.95;4.43;;;;;;;-142.57;32.44;115900.28;5065543;28;20040;-78
2023/09/10 08:06:39;;;;;;;9.57;4.47;;;;;;;-142.57;33.10;115900.28;5067159;28;20081;-80
2023/09/10 08:09:05;;;;;;;13.85;4.65;;;;;;;-142.57;32.68;115900.28;5069475;28;20112;-82
2023/09/10 08:11:31;;;;;;;14.23;5.00;;;;;;;-142.57;33.01;115900.28;5063050;28;20410;-81
2023/09/10 08:14:00;;;;;;;17.77;4.85;;;;;;;-142.57;33.03;115900.28;5061701;28;20119;-79
2023/09/10 08:16:29;;;;;;;12.90;4.82;;;;;;;-142.57;31.85;115900.28;5065290;28;20560;-78
2023/09/10 08:18:54;;;;;;;10.15;4.43;;;;;;;-142.57;31.48;115900.28;5064165;28;20078;-79
2023/09/10 08:21:20;;;;;;;8.30;4.82;;;;;;;-142.57;31.90;115900.28;5061938;28;20069;-79
2023/09/10 08:23:47;;;;;;;9.15;4.63;;;;;;;-142.57;31.14;115900.28;5065482;28;20127;-78
2023/09/10 08:26:13;;;;;;;14.00;4.40;;;;;;;-142.57;31.30;115900.28;5063784;28;20048;-79
2023/09/10 08:28:39;;;;;;;12.38;4.47;;;;;;;-142.57;31.27;115900.28;5063806;28;20037;-80
2023/09/10 08:31:05;;;;;;;8.23;4.70;;;;;;;-142.57;31.29;115900.28;5064899;28;20119;-85
2023/09/10 08:33:31;;;;;;;16.58;4.43;;;;;;;-142.57;30.13;115900.28;5064358;28;20112;-85
2023/09/10 08:35:56;;;;;;;7.28;4.50;;;;;;;-142.57;30.04;115900.28;5063150;28;20472;-80
2023/09/10 08:38:22;;;;;;;14.82;4.82;;;;;;;-142.57;30.41;115900.28;5065111;28;20053;-80
2023/09/10 08:40:59;;;;;;;10.55;4.45;;;;;;;-142.57;30.05;115900.28;5063994;28;20025;-82
2023/09/10 08:43:31;;;;;;;13.35;5.30;;;;;;;-142.57;30.43;115900.28;5063601;28;20040;-84
2023/09/10 08:45:57;;;;;;;;;;;;;;;-142.57;30.28;115900.28;5055961;28;20118;-81
2023/09/10 08:48:24;;;;;;;15.82;6.10;;;;;;;-142.57;30.54;115900.28;5063601;28;19935;-89
2023/09/10 08:50:50;;;;;;;17.75;6.25;;;;;;;-142.57;30.50;115900.28;5064430;28;20013;-85
2023/09/10 08:53:19;;;;;;;21.95;7.10;;;;;;;-142.57;30.43;115900.28;5065332;28;20059;-82
2023/09/10 08:55:46;;;;;;;12.93;7.15;;;;;;;-142.57;30.87;115900.28;5065478;28;20037;-85
2023/09/10 08:58:12;;;;;;;14.60;6.43;;;;;;;-142.57;31.38;115900.28;5065737;28;20450;-82
2023/09/10 09:00:40;;;;;;;17.90;6.97;;;;;;;-142.57;30.24;115900.28;5065307;28;20108;-79
2023/09/10 09:03:06;;;;;;;17.80;7.75;;;;;;;-142.57;30.94;115900.28;5073468;28;20043;-86
2023/09/10 09:05:34;;;;;;;11.10;6.40;;;;;;;-142.57;30.72;115900.28;5064537;28;20020;-85
2023/09/10 09:08:14;;;;;;;12.43;6.75;;;;;;;-142.57;29.90;115900.28;5072108;28;20032;-84
2023/09/10 09:10:40;;;;;;;10.45;6.20;;;;;;;-142.57;29.97;115900.28;5054603;28;20080;-86
2023/09/10 09:13:09;;;;;;;15.63;6.65;;;;;;;-142.57;30.04;115900.28;5053427;28;20033;-84
2023/09/10 09:15:38;;;;;;;7.80;5.25;;;;;;;-142.57;28.96;115900.28;5061652;28;20116;-87
2023/09/10 09:18:07;;;;;;;11.85;5.25;;;;;;;-142.57;29.02;115900.28;5065319;28;20025;-84
2023/09/10 09:20:34;;;;;;;13.00;5.40;;;;;;;-142.57;28.86;115900.28;5057008;28;20041;-82
2023/09/10 09:23:31;;;;;;;21.33;12.25;;;;;;;-142.57;28.82;115900.28;5059992;28;20024;-85
2023/09/10 09:25:57;;;;;;;9.80;5.20;;;;;;;-142.57;28.11;115900.28;5055428;28;20516;-82
2023/09/10 09:28:26;;;;;;;10.82;4.72;;;;;;;-142.57;27.84;115900.28;5059464;28;20059;-82
2023/09/10 09:30:52;;;;;;;12.30;4.60;;;;;;;-142.57;27.84;115900.28;5055523;28;20029;-85
2023/09/10 09:33:17;;;;;;;12.35;4.90;;;;;;;-142.57;27.98;115900.28;5055037;28;20118;-80
2023/09/10 09:35:46;;;;;;;10.75;5.75;;;;;;;-142.57;27.61;115900.28;5057612;28;20064;-87
2023/09/10 09:38:15;;;;;;;9.70;5.95;;;;;;;-142.57;28.46;115900.28;5066959;28;20029;-89
2023/09/10 09:40:43;;;;;;;9.35;6.15;;;;;;;-142.57;27.71;115900.28;5062503;28;20033;-87
2023/09/10 09:43:10;;;;;;;8.48;5.22;;;;;;;-142.57;27.62;115900.28;5059661;28;20882;-88
2023/09/10 09:45:36;;;;;;;13.82;4.90;;;;;;;-142.57;27.09;115900.28;5063921;28;20040;-86
2023/09/10 09:48:03;;;;;;;13.13;5.28;;;;;;;-142.57;27.15;115900.28;5060440;28;20021;-83
2023/09/10 09:50:32;;;;;;;9.80;4.88;;;;;;;-142.57;26.79;115900.28;5054673;28;20032;-85
2023/09/10 09:52:58;;;;;;;23.45;5.60;;;;;;;-142.57;26.51;115900.28;5068148;28;20428;-88
2023/09/10 09:55:24;;;;;;;9.48;4.50;;;;;;;-142.57;26.50;115900.28;5065509;28;20036;-85
2023/09/10 09:57:53;;;;;;;7.13;4.28;;;;;;;-142.57;26.59;115900.28;5074957;28;20041;-85
2023/09/10 10:00:19;;;;;;;10.27;4.32;;;;;;;-142.57;26.56;115900.28;5082766;28;20112;-87
2023/09/10 10:02:44;;;;;;;9.52;4.18;;;;;;;-142.57;26.84;115900.28;5064172;28;20040;-83
2023/09/10 10:05:14;;;;;;;9.55;4.43;;;;;;;-142.57;26.72;115900.28;5063420;28;20115;-88
2023/09/10 10:07:41;;;;;;;7.65;4.07;;;;;;;-142.57;26.52;115900.28;5061146;28;20418;-84
2023/09/10 10:10:14;;;;;;;14.40;4.50;;;;;;;-142.57;26.10;115900.28;5064427;28;20028;-82
2023/09/10 10:12:42;;;;;;;8.70;4.10;;;;;;;-142.57;26.04;115900.28;5061026;28;20387;-81
2023/09/10 10:15:09;;;;;;;12.02;3.65;;;;;;;-142.57;24.97;115900.28;5080543;28;20028;-80
2023/09/10 10:17:35;;;;;;;8.05;3.50;;;;;;;-142.57;25.01;115900.28;5059719;28;20487;-81
2023/09/10 10:20:04;;;;;;;10.50;3.83;;;;;;;-142.57;25.43;115900.28;5064099;28;20028;-80
2023/09/10 10:22:31;;;;;;;6.18;3.20;;;;;;;-142.57;24.98;115900.28;5061486;28;20036;-83
2023/09/10 10:24:57;;;;;;;7.25;3.35;;;;;;;-142.57;24.75;115900.28;5067481;28;20780;-83
2023/09/10 10:27:25;;;;;;;11.52;4.03;;;;;;;-142.57;24.96;115900.28;5064164;28;20069;-86
2023/09/10 10:29:51;;;;;;;7.90;4.18;;;;;;;-142.57;24.79;115900.28;5070480;28;20033;-85
2023/09/10 10:32:27;;;;;;;6.38;3.28;;;;;;;-142.57;24.21;115900.28;5068927;28;20036;-84
2023/09/10 10:34:57;;;;;;;6.97;3.80;;;;;;;-142.57;24.52;115900.28;5054332;28;20086;-84
2023/09/10 10:37:43;;;;;;;10.52;3.80;;;;;;;-142.57;24.71;115900.28;5052712;28;20025;-82
2023/09/10 10:40:13;;;;;;;12.80;3.60;;;;;;;-142.57;24.56;115900.28;5080009;28;20048;-85
2023/09/10 10:43:01;;;;;;;6.38;3.00;;;;;;;-142.57;24.66;115900.28;5053056;28;20025;-80
2023/09/10 10:45:28;;;;;;;6.85;3.25;;;;;;;-142.57;24.46;115900.28;5059284;28;20033;-82
2023/09/10 10:47:59;;;;;;;10.40;3.67;;;;;;;-142.57;24.07;115900.28;5067827;28;20021;-84
2023/09/10 10:50:26;;;;;;;7.30;3.85;;;;;;;-142.57;24.58;115900.28;5052889;28;20101;-84
2023/09/10 10:52:59;;;;;;;4.30;3.50;;;;;;;-142.57;24.41;115900.28;5061848;28;20021;-83
2023/09/10 10:55:26;;;;;;;7.75;3.42;;;;;;;-142.57;24.72;115900.28;5065080;28;20417;-85
2023/09/10 10:57:53;;;;;;;12.45;3.80;;;;;;;-142.57;24.69;115900.28;5064998;28;20028;-81
2023/09/10 11:00:20;;;;;;;6.03;3.70;;;;;;;-142.57;24.47;115900.28;5078311;28;20487;-82
2023/09/10 11:02:49;;;;;;;11.25;3.47;;;;;;;-142.57;24.39;115900.28;5074927;28;20024;-84
2023/09/10 11:05:15;;;;;;;9.63;3.38;;;;;;;-142.57;23.85;115900.28;5075257;28;20028;-85